Terminal Aerodrome Forecast
Issued by NWS

Home | Current Version | Previous Version | Text Only | Print | Product List | Glossary On
Versions: 1 2 3 4 5 6 7 8 9 10 11 12 13 14 15 16 17 18 19 20 21 22 23 24 25 26 27 28
000
FTUS45 KGJT 292320
TAFEGE
TAF
KEGE 292320Z 3000/3024 26010G16KT P6SM VCSH BKN100
     FM300200 18006KT P6SM VCSH BKN070
     FM301400 00000KT P6SM VCSH BKN060
     FM302100 25008KT P6SM VCTS BKN080CB
      AMD LTD TO CLD VIS AND WIND 3001/3013=

USA.gov is the U.S. government's official web portal to all federal, state and local government web resources and services.